Time;durP1;ratioP1;P1;durP2;ratioP2;P2;SDS_P1;SDS_P2;PMS_P1;PMS_P2;Temp;Humidity;BMP_temperature;BMP_pressure;BME280_temperature;BME280_humidity;BME280_pressure;Samples;Min_cycle;Max_cycle;Signal;HPM_P1;HPM_P2
2023/06/16 00:01:31;;;;;;;12.57;11.48;;;;;;;;;;4910331;29;20769;-80
2023/06/16 00:03:59;;;;;;;14.27;12.75;;;;;;;;;;4912681;29;20251;-82
2023/06/16 00:06:29;;;;;;;13.07;11.68;;;;;;;;;;4908949;29;20217;-78
2023/06/16 00:08:58;;;;;;;13.38;12.02;;;;;;;;;;4901433;29;20273;-79
2023/06/16 00:11:27;;;;;;;13.80;12.45;;;;;;;;;;4902162;29;20327;-78
2023/06/16 00:13:55;;;;;;;13.43;12.15;;;;;;;;;;4901231;29;20224;-79
2023/06/16 00:16:23;;;;;;;14.10;12.80;;;;;;;;;;4901509;29;20209;-79
2023/06/16 00:18:52;;;;;;;14.02;12.73;;;;;;;;;;4901801;29;20826;-80
2023/06/16 00:21:25;;;;;;;14.48;13.00;;;;;;;;;;4901308;29;20244;-79
2023/06/16 00:23:54;;;;;;;14.48;13.27;;;;;;;;;;4900932;29;20252;-79
2023/06/16 00:26:23;;;;;;;14.48;13.18;;;;;;;;;;4903337;29;20648;-79
2023/06/16 00:28:50;;;;;;;13.98;12.27;;;;;;;;;;4901526;29;20345;-78
2023/06/16 00:31:17;;;;;;;14.00;12.75;;;;;;;;;;4902368;29;20209;-81
2023/06/16 00:33:45;;;;;;;13.60;12.20;;;;;;;;;;4906210;29;20227;-79
2023/06/16 00:36:12;;;;;;;14.75;13.38;;;;;;;;;;4903934;29;20245;-80
2023/06/16 00:38:40;;;;;;;13.40;12.10;;;;;;;;;;4907374;29;20227;-79
2023/06/16 00:41:07;;;;;;;14.23;12.88;;;;;;;;;;4900932;29;20213;-78
2023/06/16 00:43:35;;;;;;;14.10;12.75;;;;;;;;;;4902416;29;20233;-79
2023/06/16 00:46:05;;;;;;;15.20;13.63;;;;;;;;;;4907417;29;20276;-79
2023/06/16 00:48:32;;;;;;;14.32;13.02;;;;;;;;;;4899779;29;20649;-80
2023/06/16 00:51:03;;;;;;;14.52;12.55;;;;;;;;;;4899777;29;20213;-78
2023/06/16 00:53:31;;;;;;;15.20;13.60;;;;;;;;;;4902777;29;20228;-79
2023/06/16 00:55:59;;;;;;;15.13;13.20;;;;;;;;;;4898278;29;20386;-80
2023/06/16 00:58:27;;;;;;;13.52;12.30;;;;;;;;;;4899371;29;20718;-79
2023/06/16 01:00:57;;;;;;;14.07;12.77;;;;;;;;;;4900367;29;20257;-79
2023/06/16 01:03:26;;;;;;;15.27;13.23;;;;;;;;;;4907616;29;20247;-79
2023/06/16 01:05:56;;;;;;;19.60;13.75;;;;;;;;;;4902651;29;20375;-81
2023/06/16 01:08:47;;;;;;;14.25;12.85;;;;;;;;;;4912225;29;20219;-80
2023/06/16 01:11:33;;;;;;;20.15;13.70;;;;;;;;;;4893169;29;20719;-79
2023/06/16 01:14:01;;;;;;;16.92;14.10;;;;;;;;;;4903348;29;20227;-79
2023/06/16 01:16:31;;;;;;;14.57;13.15;;;;;;;;;;4903692;29;20391;-79
2023/06/16 01:19:08;;;;;;;15.13;12.63;;;;;;;;;;4903020;29;20272;-78
2023/06/16 01:21:48;;;;;;;13.63;12.30;;;;;;;;;;4904814;29;20213;-79
2023/06/16 01:24:18;;;;;;;16.10;13.75;;;;;;;;;;4904458;29;20213;-79
2023/06/16 01:26:49;;;;;;;14.68;12.45;;;;;;;;;;4907349;29;20221;-81
2023/06/16 01:29:18;;;;;;;15.05;13.65;;;;;;;;;;4905997;29;20264;-80
2023/06/16 01:31:45;;;;;;;14.65;12.30;;;;;;;;;;4905513;29;20223;-80
2023/06/16 01:34:14;;;;;;;14.85;13.40;;;;;;;;;;4902497;29;20213;-78
2023/06/16 01:36:42;;;;;;;13.90;12.40;;;;;;;;;;4901968;29;20217;-78
2023/06/16 01:39:10;;;;;;;13.32;11.95;;;;;;;;;;4908101;29;20208;-78
2023/06/16 01:41:38;;;;;;;13.57;11.77;;;;;;;;;;4902735;29;20249;-79
2023/06/16 01:44:06;;;;;;;13.43;12.20;;;;;;;;;;4901090;29;20662;-79
2023/06/16 01:46:34;;;;;;;12.77;11.52;;;;;;;;;;4901868;29;20248;-78
2023/06/16 01:49:02;;;;;;;13.40;11.10;;;;;;;;;;4902935;29;20367;-80
2023/06/16 01:51:29;;;;;;;14.68;12.25;;;;;;;;;;4908902;29;20212;-80
2023/06/16 01:53:57;;;;;;;12.02;10.93;;;;;;;;;;4902955;29;20223;-82
2023/06/16 01:56:25;;;;;;;18.35;13.05;;;;;;;;;;4902415;29;20213;-79
2023/06/16 01:58:53;;;;;;;11.63;10.40;;;;;;;;;;4901695;29;20295;-80
2023/06/16 02:01:29;;;;;;;12.80;11.50;;;;;;;;;;4901808;29;20201;-78
2023/06/16 02:04:07;;;;;;;11.18;10.13;;;;;;;;;;4909946;29;20240;-79
2023/06/16 02:06:41;;;;;;;13.13;11.93;;;;;;;;;;4911314;29;20275;-79
2023/06/16 02:09:11;;;;;;;14.15;11.70;;;;;;;;;;4904346;29;20254;-77
2023/06/16 02:11:39;;;;;;;14.93;12.25;;;;;;;;;;4904599;29;20209;-77
2023/06/16 02:14:07;;;;;;;17.40;12.40;;;;;;;;;;4907422;29;20209;-78
2023/06/16 02:16:44;;;;;;;14.05;11.15;;;;;;;;;;4902235;29;20212;-79
2023/06/16 02:19:12;;;;;;;12.27;11.13;;;;;;;;;;4901675;29;20209;-81
2023/06/16 02:21:43;;;;;;;13.48;12.02;;;;;;;;;;4903008;29;20808;-79
2023/06/16 02:24:11;;;;;;;19.33;12.43;;;;;;;;;;4901793;29;20245;-78
2023/06/16 02:26:39;;;;;;;14.63;11.38;;;;;;;;;;4896073;29;20270;-78
2023/06/16 02:29:06;;;;;;;13.43;10.90;;;;;;;;;;4902338;29;20213;-80
2023/06/16 02:31:33;;;;;;;12.25;10.45;;;;;;;;;;4911261;29;20216;-78
2023/06/16 02:34:01;;;;;;;12.25;11.05;;;;;;;;;;4905496;29;20260;-78
2023/06/16 02:36:29;;;;;;;13.88;12.07;;;;;;;;;;4902156;29;20217;-79
2023/06/16 02:38:56;;;;;;;17.70;12.15;;;;;;;;;;4901530;29;20213;-79
2023/06/16 02:41:24;;;;;;;14.73;13.10;;;;;;;;;;4903205;29;20217;-78
2023/06/16 02:43:52;;;;;;;14.38;12.40;;;;;;;;;;4900692;29;20237;-77
2023/06/16 02:46:19;;;;;;;14.10;12.65;;;;;;;;;;4903669;29;20258;-79
2023/06/16 02:48:48;;;;;;;14.65;13.35;;;;;;;;;;4901377;29;20210;-78
2023/06/16 02:51:15;;;;;;;18.20;15.85;;;;;;;;;;4901709;29;20221;-78
2023/06/16 02:53:45;;;;;;;17.83;16.05;;;;;;;;;;4904963;29;20840;-79
2023/06/16 02:56:12;;;;;;;15.77;14.23;;;;;;;;;;4901946;29;20311;-80
2023/06/16 02:58:39;;;;;;;18.55;16.02;;;;;;;;;;4900011;29;20362;-79
2023/06/16 03:01:07;;;;;;;19.10;17.15;;;;;;;;;;4900424;29;20213;-78
2023/06/16 03:03:36;;;;;;;22.85;19.15;;;;;;;;;;4902744;29;20323;-78
2023/06/16 03:06:04;;;;;;;19.25;17.17;;;;;;;;;;4907489;29;20235;-78
2023/06/16 03:08:32;;;;;;;19.63;16.30;;;;;;;;;;4901924;29;20213;-79
2023/06/16 03:10:59;;;;;;;19.05;16.83;;;;;;;;;;4901087;29;20213;-78
2023/06/16 03:13:27;;;;;;;17.70;15.98;;;;;;;;;;4893308;29;20261;-79
2023/06/16 03:15:56;;;;;;;22.52;17.00;;;;;;;;;;4900603;29;20213;-79
2023/06/16 03:18:23;;;;;;;18.80;16.95;;;;;;;;;;4903624;29;20209;-78
2023/06/16 03:20:51;;;;;;;21.27;18.83;;;;;;;;;;4910283;29;20201;-79
2023/06/16 03:23:18;;;;;;;22.48;19.00;;;;;;;;;;4905532;29;20236;-81
2023/06/16 03:25:46;;;;;;;20.23;18.20;;;;;;;;;;4915686;29;20201;-80
2023/06/16 03:28:15;;;;;;;21.80;17.05;;;;;;;;;;4924179;29;20299;-79
2023/06/16 03:30:44;;;;;;;18.23;15.55;;;;;;;;;;4911565;29;20304;-79
2023/06/16 03:33:11;;;;;;;18.13;13.67;;;;;;;;;;4906844;29;20224;-78
2023/06/16 03:35:38;;;;;;;15.07;13.47;;;;;;;;;;4904927;29;20552;-78
2023/06/16 03:38:06;;;;;;;18.73;13.10;;;;;;;;;;4911107;29;20470;-78
2023/06/16 03:40:33;;;;;;;12.70;11.63;;;;;;;;;;4903064;29;20445;-78
2023/06/16 03:43:02;;;;;;;13.63;12.20;;;;;;;;;;4905272;29;20455;-80
2023/06/16 03:45:29;;;;;;;15.83;11.40;;;;;;;;;;4904875;29;20447;-79
2023/06/16 03:47:57;;;;;;;11.60;10.13;;;;;;;;;;4904973;29;20469;-79
2023/06/16 03:50:25;;;;;;;12.53;11.43;;;;;;;;;;4904184;29;20997;-78
2023/06/16 03:52:54;;;;;;;9.23;8.33;;;;;;;;;;4900758;29;20946;-77
2023/06/16 03:55:41;;;;;;;16.50;9.90;;;;;;;;;;4895899;29;20465;-80
2023/06/16 03:58:10;;;;;;;10.43;9.33;;;;;;;;;;4905614;29;20470;-80
2023/06/16 04:00:39;;;;;;;13.40;10.53;;;;;;;;;;4908220;29;20804;-80
2023/06/16 04:03:07;;;;;;;14.53;9.87;;;;;;;;;;4917846;29;20469;-77
2023/06/16 04:05:35;;;;;;;8.93;7.77;;;;;;;;;;4904932;29;20482;-79
2023/06/16 04:08:03;;;;;;;15.30;9.30;;;;;;;;;;4915868;29;20784;-79
2023/06/16 04:10:31;;;;;;;10.50;7.93;;;;;;;;;;4907041;29;20460;-82
2023/06/16 04:12:58;;;;;;;13.77;8.97;;;;;;;;;;4900460;29;20453;-79
2023/06/16 04:15:26;;;;;;;8.80;7.87;;;;;;;;;;4900555;29;20458;-79
2023/06/16 04:17:53;;;;;;;10.17;8.90;;;;;;;;;;4902669;29;20837;-79
2023/06/16 04:20:21;;;;;;;10.50;8.60;;;;;;;;;;4902436;29;20446;-81
2023/06/16 04:22:48;;;;;;;8.73;7.90;;;;;;;;;;4911680;29;20504;-79
2023/06/16 04:25:17;;;;;;;10.27;8.43;;;;;;;;;;4907708;29;20534;-80
2023/06/16 04:27:46;;;;;;;10.00;8.57;;;;;;;;;;4905607;29;20456;-78
2023/06/16 04:30:14;;;;;;;10.93;9.17;;;;;;;;;;4902844;29;20454;-77
2023/06/16 04:32:44;;;;;;;8.83;7.27;;;;;;;;;;4900758;29;20446;-80
2023/06/16 04:35:13;;;;;;;8.43;7.60;;;;;;;;;;4902532;29;20455;-79
2023/06/16 04:37:43;;;;;;;10.87;8.43;;;;;;;;;;4905411;29;20538;-79
2023/06/16 04:40:10;;;;;;;13.17;9.03;;;;;;;;;;4910165;29;20688;-80
2023/06/16 04:42:38;;;;;;;11.63;10.43;;;;;;;;;;4914552;29;20449;-79
2023/06/16 04:45:07;;;;;;;10.27;9.27;;;;;;;;;;4905783;29;20523;-80
2023/06/16 04:47:35;;;;;;;14.33;8.33;;;;;;;;;;4899494;29;20468;-79
2023/06/16 04:50:03;;;;;;;9.20;7.70;;;;;;;;;;4906898;29;20443;-80
2023/06/16 04:52:30;;;;;;;9.80;8.30;;;;;;;;;;4909906;29;20458;-80
2023/06/16 04:54:58;;;;;;;13.07;9.00;;;;;;;;;;4905563;29;20447;-80
2023/06/16 04:57:25;;;;;;;9.40;8.20;;;;;;;;;;4907866;29;20476;-80
2023/06/16 04:59:53;;;;;;;11.53;9.13;;;;;;;;;;4911742;29;20477;-80
2023/06/16 05:02:20;;;;;;;11.07;9.50;;;;;;;;;;4903339;29;20453;-78
2023/06/16 05:04:48;;;;;;;14.03;8.13;;;;;;;;;;4908996;29;20491;-83
2023/06/16 05:07:15;;;;;;;11.80;8.00;;;;;;;;;;4904276;29;20748;-81
2023/06/16 05:09:43;;;;;;;13.03;9.73;;;;;;;;;;4905776;29;20460;-80
2023/06/16 05:12:10;;;;;;;12.80;9.43;;;;;;;;;;4912809;29;20661;-80
2023/06/16 05:14:39;;;;;;;8.70;7.90;;;;;;;;;;4909772;29;20435;-82
2023/06/16 05:17:06;;;;;;;10.67;8.07;;;;;;;;;;4909015;29;20506;-79
2023/06/16 05:19:34;;;;;;;15.93;9.03;;;;;;;;;;4906030;29;20766;-81
2023/06/16 05:22:02;;;;;;;9.17;8.07;;;;;;;;;;4907219;29;20458;-79
2023/06/16 05:24:29;;;;;;;10.80;9.80;;;;;;;;;;4905236;29;20562;-80
2023/06/16 05:26:57;;;;;;;10.57;8.70;;;;;;;;;;4911184;29;20471;-81
2023/06/16 05:29:25;;;;;;;9.47;8.03;;;;;;;;;;4906894;29;20449;-82
2023/06/16 05:31:55;;;;;;;8.87;8.07;;;;;;;;;;4904905;29;20451;-81
2023/06/16 05:34:22;;;;;;;11.47;7.90;;;;;;;;;;4908383;29;20434;-78
2023/06/16 05:36:50;;;;;;;12.00;8.17;;;;;;;;;;4906336;29;20427;-81
2023/06/16 05:39:18;;;;;;;11.37;8.93;;;;;;;;;;4905881;29;20446;-82
2023/06/16 05:41:46;;;;;;;9.67;7.43;;;;;;;;;;4905173;29;20768;-82
2023/06/16 05:44:14;;;;;;;10.33;7.33;;;;;;;;;;4905889;29;20563;-81
2023/06/16 05:46:41;;;;;;;8.47;7.70;;;;;;;;;;4906755;29;20449;-82
2023/06/16 05:49:09;;;;;;;8.93;8.07;;;;;;;;;;4904311;29;20515;-81
2023/06/16 05:51:36;;;;;;;9.40;8.50;;;;;;;;;;4906096;29;20474;-80
2023/06/16 05:54:04;;;;;;;8.27;7.13;;;;;;;;;;4909320;29;20999;-82
2023/06/16 05:56:31;;;;;;;9.50;7.17;;;;;;;;;;4905230;29;20744;-81
2023/06/16 05:58:58;;;;;;;8.80;8.03;;;;;;;;;;4909620;29;20441;-78
2023/06/16 06:01:27;;;;;;;8.27;7.57;;;;;;;;;;4903662;29;20681;-81
2023/06/16 06:03:54;;;;;;;9.57;7.73;;;;;;;;;;4912648;29;20486;-81
2023/06/16 06:06:22;;;;;;;15.17;12.57;;;;;;;;;;4908194;29;20472;-81
2023/06/16 06:08:51;;;;;;;13.50;11.10;;;;;;;;;;4920220;29;20765;-83
2023/06/16 06:11:19;;;;;;;8.13;7.17;;;;;;;;;;4907022;29;20448;-81
2023/06/16 06:13:46;;;;;;;11.03;7.63;;;;;;;;;;4910933;29;20467;-80
2023/06/16 06:16:14;;;;;;;9.80;7.50;;;;;;;;;;4907096;29;20806;-79
2023/06/16 06:18:43;;;;;;;9.67;6.70;;;;;;;;;;4905731;29;20750;-80
2023/06/16 06:21:11;;;;;;;8.80;7.80;;;;;;;;;;4905904;29;20521;-79
2023/06/16 06:23:40;;;;;;;9.40;7.13;;;;;;;;;;4900282;29;20551;-82
2023/06/16 06:26:08;;;;;;;8.10;7.40;;;;;;;;;;4915157;29;21138;-82
2023/06/16 06:28:35;;;;;;;8.23;7.47;;;;;;;;;;4906233;29;20446;-82
2023/06/16 06:31:03;;;;;;;8.97;8.20;;;;;;;;;;4905247;29;20443;-77
2023/06/16 06:33:30;;;;;;;8.00;7.20;;;;;;;;;;4910291;29;20439;-81
2023/06/16 06:36:00;;;;;;;13.23;7.30;;;;;;;;;;4907349;29;20673;-81
2023/06/16 06:38:27;;;;;;;8.40;6.90;;;;;;;;;;4917778;29;20754;-84
2023/06/16 06:40:55;;;;;;;8.03;7.33;;;;;;;;;;4914620;29;20480;-79
2023/06/16 06:43:22;;;;;;;14.43;10.50;;;;;;;;;;4900009;29;20999;-82
2023/06/16 06:45:49;;;;;;;14.40;7.60;;;;;;;;;;4904529;29;20622;-82
2023/06/16 06:48:17;;;;;;;7.80;7.00;;;;;;;;;;4903798;29;20513;-79
2023/06/16 06:50:45;;;;;;;7.87;7.27;;;;;;;;;;4904933;29;20444;-78
2023/06/16 06:53:12;;;;;;;7.70;7.00;;;;;;;;;;4904948;29;20451;-81
2023/06/16 06:55:47;;;;;;;8.10;7.07;;;;;;;;;;4896417;29;20508;-82
2023/06/16 06:58:14;;;;;;;8.00;7.13;;;;;;;;;;4903774;29;20539;-88
2023/06/16 07:00:41;;;;;;;8.90;7.33;;;;;;;;;;4900742;29;20539;-82
2023/06/16 07:03:08;;;;;;;7.20;6.70;;;;;;;;;;4904992;29;20472;-81
2023/06/16 07:05:36;;;;;;;8.87;7.90;;;;;;;;;;4903770;29;20477;-80
2023/06/16 07:08:04;;;;;;;8.90;7.67;;;;;;;;;;4905292;29;20561;-81
2023/06/16 07:10:32;;;;;;;8.53;7.73;;;;;;;;;;4911025;29;20427;-84
2023/06/16 07:13:00;;;;;;;8.70;8.10;;;;;;;;;;4917761;29;20423;-84
2023/06/16 07:15:28;;;;;;;9.50;6.97;;;;;;;;;;4921179;29;20456;-79
2023/06/16 07:17:55;;;;;;;11.23;6.90;;;;;;;;;;4908398;29;20733;-80
2023/06/16 07:20:23;;;;;;;11.40;8.13;;;;;;;;;;4913388;29;20797;-81
2023/06/16 07:22:51;;;;;;;8.13;7.40;;;;;;;;;;4904079;29;20426;-80
2023/06/16 07:25:18;;;;;;;8.00;7.30;;;;;;;;;;4905359;29;20722;-81
2023/06/16 07:27:46;;;;;;;11.53;8.10;;;;;;;;;;4906363;29;20477;-82
2023/06/16 07:30:14;;;;;;;10.83;8.47;;;;;;;;;;4905290;29;20755;-80
2023/06/16 07:32:41;;;;;;;18.20;8.10;;;;;;;;;;4905911;29;20473;-81
2023/06/16 07:35:08;;;;;;;10.53;7.60;;;;;;;;;;4908004;29;20426;-79
2023/06/16 07:37:36;;;;;;;8.70;8.00;;;;;;;;;;4902659;29;20418;-81
2023/06/16 07:40:06;;;;;;;7.77;7.07;;;;;;;;;;4905282;29;20418;-80
2023/06/16 07:42:34;;;;;;;8.60;7.80;;;;;;;;;;4910625;29;20413;-79
2023/06/16 07:45:01;;;;;;;11.20;7.10;;;;;;;;;;4905822;29;20478;-78
2023/06/16 07:47:28;;;;;;;10.77;8.73;;;;;;;;;;4902575;29;20456;-84
2023/06/16 07:49:56;;;;;;;8.70;6.87;;;;;;;;;;4904485;29;20673;-80
2023/06/16 07:52:23;;;;;;;9.67;8.77;;;;;;;;;;4895900;29;20445;-81
2023/06/16 07:54:50;;;;;;;8.43;7.73;;;;;;;;;;4912820;29;21006;-83
2023/06/16 07:57:17;;;;;;;9.63;7.90;;;;;;;;;;4900463;29;20475;-83
2023/06/16 07:59:45;;;;;;;9.50;8.60;;;;;;;;;;4900261;29;21049;-85
2023/06/16 08:02:14;;;;;;;8.60;7.70;;;;;;;;;;4903382;29;20759;-81
2023/06/16 08:04:43;;;;;;;8.67;7.93;;;;;;;;;;4901520;29;20553;-84
2023/06/16 08:07:10;;;;;;;8.27;7.57;;;;;;;;;;4898418;29;20448;-82
2023/06/16 08:09:37;;;;;;;9.67;8.73;;;;;;;;;;4901714;29;20482;-80
2023/06/16 08:12:05;;;;;;;8.77;7.20;;;;;;;;;;4900623;29;21003;-80
2023/06/16 08:14:34;;;;;;;11.50;8.50;;;;;;;;;;4902665;29;20460;-81
2023/06/16 08:17:02;;;;;;;9.37;8.47;;;;;;;;;;4903629;29;21066;-80
2023/06/16 08:19:29;;;;;;;8.70;7.80;;;;;;;;;;4902092;29;20447;-80
2023/06/16 08:21:58;;;;;;;8.40;7.80;;;;;;;;;;4895831;29;20430;-80
2023/06/16 08:24:25;;;;;;;9.67;7.60;;;;;;;;;;4902605;29;20450;-83
2023/06/16 08:26:52;;;;;;;9.20;8.30;;;;;;;;;;4903890;29;20464;-81
2023/06/16 08:29:21;;;;;;;8.80;8.07;;;;;;;;;;4906009;29;20447;-80
2023/06/16 08:31:48;;;;;;;8.20;7.50;;;;;;;;;;4895304;29;20547;-79
2023/06/16 08:34:15;;;;;;;9.20;8.30;;;;;;;;;;4905235;29;20458;-80
2023/06/16 08:36:43;;;;;;;8.80;8.00;;;;;;;;;;4903063;29;20414;-80
2023/06/16 08:39:10;;;;;;;8.83;7.97;;;;;;;;;;4909716;29;20440;-79
2023/06/16 08:41:38;;;;;;;8.50;7.73;;;;;;;;;;4912185;29;20547;-80
2023/06/16 08:44:08;;;;;;;8.80;8.07;;;;;;;;;;4907052;29;20451;-78
2023/06/16 08:46:35;;;;;;;8.40;7.70;;;;;;;;;;4912852;29;20448;-80
2023/06/16 08:49:06;;;;;;;7.87;7.27;;;;;;;;;;4906843;29;20808;-79
2023/06/16 08:51:34;;;;;;;8.37;7.77;;;;;;;;;;4902791;29;20693;-79
2023/06/16 08:54:04;;;;;;;8.37;7.67;;;;;;;;;;4903010;29;20486;-81
2023/06/16 08:56:33;;;;;;;9.50;8.67;;;;;;;;;;4907024;29;20823;-79
2023/06/16 08:59:02;;;;;;;9.70;7.97;;;;;;;;;;4904731;29;20494;-82
2023/06/16 09:01:30;;;;;;;8.40;7.60;;;;;;;;;;4904535;29;20451;-82
2023/06/16 09:03:57;;;;;;;9.67;8.97;;;;;;;;;;4912837;29;20422;-80
2023/06/16 09:06:25;;;;;;;9.73;8.80;;;;;;;;;;4907520;29;20490;-79
2023/06/16 09:08:52;;;;;;;8.63;7.77;;;;;;;;;;4901862;29;20456;-77
2023/06/16 09:11:26;;;;;;;12.93;7.83;;;;;;;;;;4901540;29;20449;-79
2023/06/16 09:13:54;;;;;;;10.03;7.83;;;;;;;;;;4899139;29;20475;-77
2023/06/16 09:16:21;;;;;;;10.37;7.60;;;;;;;;;;4899004;29;20535;-81
2023/06/16 09:18:49;;;;;;;8.23;7.63;;;;;;;;;;4902837;29;20641;-81
2023/06/16 09:21:24;;;;;;;8.43;7.73;;;;;;;;;;4893729;29;20448;-83
2023/06/16 09:24:00;;;;;;;8.20;7.70;;;;;;;;;;4902282;29;20439;-79
2023/06/16 09:26:36;;;;;;;8.00;6.63;;;;;;;;;;4907120;29;20495;-80
2023/06/16 09:29:21;;;;;;;8.70;6.57;;;;;;;;;;4906387;29;20651;-79
2023/06/16 09:31:52;;;;;;;10.83;6.40;;;;;;;;;;4907182;29;20508;-80
2023/06/16 09:34:19;;;;;;;6.33;5.90;;;;;;;;;;4907313;29;20459;-84
2023/06/16 09:36:47;;;;;;;5.03;4.73;;;;;;;;;;4903464;29;20647;-81
2023/06/16 09:39:24;;;;;;;6.93;6.43;;;;;;;;;;4903211;29;20456;-82
2023/06/16 09:41:55;;;;;;;7.80;7.13;;;;;;;;;;4905328;29;20447;-81
2023/06/16 09:44:26;;;;;;;7.63;6.53;;;;;;;;;;4905877;29;20440;-83
2023/06/16 09:46:54;;;;;;;6.33;5.83;;;;;;;;;;4913434;29;20732;-82
2023/06/16 09:49:23;;;;;;;6.47;5.93;;;;;;;;;;4902820;29;20455;-82
2023/06/16 09:51:54;;;;;;;7.57;6.87;;;;;;;;;;4905678;29;20415;-80
2023/06/16 09:54:22;;;;;;;6.30;5.83;;;;;;;;;;4903104;29;20466;-79
2023/06/16 09:56:49;;;;;;;6.07;5.33;;;;;;;;;;4904210;29;20487;-82
2023/06/16 09:59:18;;;;;;;7.90;5.90;;;;;;;;;;4901875;29;20463;-79
2023/06/16 10:01:47;;;;;;;8.23;7.43;;;;;;;;;;4913229;29;20519;-81
2023/06/16 10:04:16;;;;;;;6.90;6.30;;;;;;;;;;4905755;29;20433;-84
2023/06/16 10:06:48;;;;;;;6.40;5.07;;;;;;;;;;4896073;29;20693;-81
2023/06/16 10:09:18;;;;;;;9.60;6.20;;;;;;;;;;4898873;29;20443;-81
2023/06/16 10:11:48;;;;;;;8.90;5.10;;;;;;;;;;4896883;29;20666;-80
2023/06/16 10:14:18;;;;;;;6.13;5.73;;;;;;;;;;4901182;29;20419;-81
2023/06/16 10:16:49;;;;;;;6.67;6.10;;;;;;;;;;4901825;29;20452;-79
2023/06/16 10:19:17;;;;;;;6.70;6.03;;;;;;;;;;4902822;29;20434;-80
2023/06/16 10:21:45;;;;;;;6.53;6.03;;;;;;;;;;4905167;29;20462;-81
2023/06/16 10:24:13;;;;;;;6.23;5.73;;;;;;;;;;4905290;29;20466;-79
2023/06/16 10:26:42;;;;;;;7.00;6.60;;;;;;;;;;4904443;29;20495;-78
2023/06/16 10:29:16;;;;;;;6.80;6.20;;;;;;;;;;4902181;29;20415;-81
2023/06/16 10:31:44;;;;;;;9.73;6.27;;;;;;;;;;4903027;29;20478;-82
2023/06/16 10:34:18;;;;;;;5.87;5.37;;;;;;;;;;4900388;29;20427;-81
2023/06/16 10:36:45;;;;;;;5.73;5.33;;;;;;;;;;4896125;29;20997;-81
2023/06/16 10:39:16;;;;;;;6.90;6.20;;;;;;;;;;4905133;29;20423;-82
2023/06/16 10:41:57;;;;;;;6.00;5.40;;;;;;;;;;4904542;29;20613;-81
2023/06/16 10:44:26;;;;;;;8.07;5.67;;;;;;;;;;4905041;29;20494;-81
2023/06/16 10:47:12;;;;;;;6.40;5.90;;;;;;;;;;4907662;29;20822;-80
2023/06/16 10:49:50;;;;;;;5.90;5.40;;;;;;;;;;4914434;29;20411;-82
2023/06/16 10:52:18;;;;;;;6.00;5.60;;;;;;;;;;4907369;29;20422;-81
2023/06/16 10:54:51;;;;;;;6.33;5.73;;;;;;;;;;4917068;29;20529;-80
2023/06/16 10:57:20;;;;;;;6.10;5.43;;;;;;;;;;4907135;29;20426;-80
2023/06/16 11:00:08;;;;;;;6.03;5.37;;;;;;;;;;4916631;29;20846;-81
2023/06/16 11:02:36;;;;;;;6.83;6.13;;;;;;;;;;4907258;29;20415;-81
2023/06/16 11:05:11;;;;;;;6.30;5.70;;;;;;;;;;4908694;29;20491;-81
2023/06/16 11:07:43;;;;;;;6.20;5.80;;;;;;;;;;4900742;29;20478;-81
2023/06/16 11:10:11;;;;;;;6.37;5.87;;;;;;;;;;4899852;29;20654;-82
2023/06/16 11:12:39;;;;;;;6.27;5.33;;;;;;;;;;4904259;29;20696;-80
2023/06/16 11:15:09;;;;;;;6.57;6.00;;;;;;;;;;4902898;29;20431;-83
2023/06/16 11:17:40;;;;;;;6.30;5.80;;;;;;;;;;4906456;29;20450;-82
2023/06/16 11:20:08;;;;;;;6.40;5.40;;;;;;;;;;4910664;29;20423;-81
2023/06/16 11:22:38;;;;;;;6.63;6.17;;;;;;;;;;4903925;29;20473;-78
2023/06/16 11:25:07;;;;;;;7.03;6.33;;;;;;;;;;4904667;29;20693;-83
2023/06/16 11:27:34;;;;;;;6.73;6.00;;;;;;;;;;4903961;29;20464;-81
2023/06/16 11:30:07;;;;;;;5.87;5.33;;;;;;;;;;4911422;29;20450;-82
2023/06/16 11:32:48;;;;;;;6.27;5.70;;;;;;;;;;4906087;29;20495;-80
2023/06/16 11:35:18;;;;;;;6.90;6.40;;;;;;;;;;4922399;29;20649;-83
2023/06/16 11:37:51;;;;;;;5.80;5.30;;;;;;;;;;4907828;29;20467;-81
2023/06/16 11:40:20;;;;;;;6.40;5.80;;;;;;;;;;4910004;29;20422;-80
2023/06/16 11:43:01;;;;;;;6.47;5.97;;;;;;;;;;4906295;29;20430;-82
2023/06/16 11:45:30;;;;;;;6.60;6.00;;;;;;;;;;4899541;29;20456;-82
2023/06/16 11:48:01;;;;;;;6.17;5.20;;;;;;;;;;4901208;29;20438;-82
2023/06/16 11:50:29;;;;;;;6.83;4.17;;;;;;;;;;4906243;29;20437;-80
2023/06/16 11:52:57;;;;;;;7.13;4.60;;;;;;;;;;4893792;29;20458;-78
2023/06/16 11:55:25;;;;;;;12.00;4.00;;;;;;;;;;4902522;29;20427;-80
2023/06/16 11:57:57;;;;;;;4.37;3.97;;;;;;;;;;4897457;29;20498;-83
2023/06/16 12:00:29;;;;;;;10.03;4.57;;;;;;;;;;4901952;29;20803;-80
2023/06/16 12:02:57;;;;;;;5.07;4.77;;;;;;;;;;4901166;29;20426;-82
2023/06/16 12:05:26;;;;;;;5.23;4.63;;;;;;;;;;4901413;29;20509;-82
2023/06/16 12:07:53;;;;;;;5.30;4.57;;;;;;;;;;4903295;29;20569;-80
2023/06/16 12:10:20;;;;;;;5.93;5.43;;;;;;;;;;4898098;29;20653;-81
2023/06/16 12:12:50;;;;;;;5.00;4.70;;;;;;;;;;4901211;29;20419;-82
2023/06/16 12:15:18;;;;;;;4.87;4.47;;;;;;;;;;4895422;29;20452;-80
2023/06/16 12:17:49;;;;;;;5.10;4.70;;;;;;;;;;4900579;29;20438;-80
2023/06/16 12:20:18;;;;;;;6.60;5.10;;;;;;;;;;4904795;29;20824;-77
2023/06/16 12:22:46;;;;;;;6.17;5.57;;;;;;;;;;4901447;29;20666;-78
2023/06/16 12:25:15;;;;;;;6.67;6.07;;;;;;;;;;4901543;29;20475;-81
2023/06/16 12:27:46;;;;;;;7.33;6.13;;;;;;;;;;4902568;29;20450;-81
2023/06/16 12:30:14;;;;;;;5.20;4.80;;;;;;;;;;4901197;29;20439;-79
2023/06/16 12:32:42;;;;;;;5.70;5.30;;;;;;;;;;4901914;29;20681;-80
2023/06/16 12:35:10;;;;;;;6.10;5.50;;;;;;;;;;4907235;29;20454;-81
2023/06/16 12:37:40;;;;;;;7.43;6.30;;;;;;;;;;4904640;29;20411;-81
2023/06/16 12:40:10;;;;;;;6.73;5.90;;;;;;;;;;4903555;29;20449;-80
2023/06/16 12:42:38;;;;;;;5.67;5.27;;;;;;;;;;4896649;29;20502;-81
2023/06/16 12:45:06;;;;;;;6.20;5.80;;;;;;;;;;4898673;29;20611;-81
2023/06/16 12:47:34;;;;;;;13.20;6.60;;;;;;;;;;4901309;29;20495;-80
2023/06/16 12:50:03;;;;;;;5.63;5.30;;;;;;;;;;4899259;29;20444;-80
2023/06/16 12:52:30;;;;;;;9.50;6.03;;;;;;;;;;4900473;29;20483;-80
2023/06/16 12:55:01;;;;;;;7.33;6.07;;;;;;;;;;4898622;29;20455;-81
2023/06/16 12:57:28;;;;;;;5.93;5.60;;;;;;;;;;4896801;29;20579;-81
2023/06/16 12:59:56;;;;;;;6.40;5.80;;;;;;;;;;4904263;29;20815;-82
2023/06/16 13:02:23;;;;;;;6.90;6.10;;;;;;;;;;4899557;29;20448;-84
2023/06/16 13:04:51;;;;;;;5.80;5.30;;;;;;;;;;4906008;29;20433;-82
2023/06/16 13:07:19;;;;;;;6.10;5.50;;;;;;;;;;4904754;29;20456;-81
2023/06/16 13:09:46;;;;;;;9.10;5.80;;;;;;;;;;4906561;29;20451;-81
2023/06/16 13:12:16;;;;;;;6.13;5.70;;;;;;;;;;4904326;29;20458;-81
2023/06/16 13:14:43;;;;;;;6.20;5.30;;;;;;;;;;4904696;29;20543;-83
2023/06/16 13:17:11;;;;;;;6.27;5.60;;;;;;;;;;4902822;29;20479;-81
2023/06/16 13:19:40;;;;;;;6.70;5.90;;;;;;;;;;4904925;29;20486;-82
2023/06/16 13:22:08;;;;;;;5.90;5.40;;;;;;;;;;4911709;29;20456;-83
2023/06/16 13:24:35;;;;;;;6.70;6.10;;;;;;;;;;4900745;29;20818;-80
2023/06/16 13:27:03;;;;;;;6.33;5.83;;;;;;;;;;4904396;29;20455;-83
2023/06/16 13:29:30;;;;;;;6.50;5.90;;;;;;;;;;4905187;29;20491;-83
2023/06/16 13:31:57;;;;;;;8.67;6.20;;;;;;;;;;4909893;29;20538;-82
2023/06/16 13:34:24;;;;;;;7.10;6.57;;;;;;;;;;4917453;29;20444;-80
2023/06/16 13:36:52;;;;;;;6.07;5.57;;;;;;;;;;4912367;29;20942;-82
2023/06/16 13:39:19;;;;;;;7.10;6.40;;;;;;;;;;4912013;29;20460;-82
2023/06/16 13:41:46;;;;;;;6.80;6.30;;;;;;;;;;4921999;29;20455;-83
2023/06/16 13:44:13;;;;;;;7.00;6.03;;;;;;;;;;4916407;29;20519;-83
2023/06/16 13:46:41;;;;;;;5.90;5.50;;;;;;;;;;4913134;29;20739;-84
2023/06/16 13:49:11;;;;;;;6.87;6.27;;;;;;;;;;4908309;29;20456;-83
2023/06/16 13:51:42;;;;;;;12.80;5.97;;;;;;;;;;4904986;29;20456;-81
2023/06/16 13:54:11;;;;;;;7.83;6.80;;;;;;;;;;4905651;29;20444;-79
2023/06/16 13:56:41;;;;;;;6.27;5.87;;;;;;;;;;4906337;29;20509;-82
2023/06/16 13:59:08;;;;;;;6.80;6.20;;;;;;;;;;4905746;29;20539;-83
2023/06/16 14:01:36;;;;;;;6.33;5.73;;;;;;;;;;4910402;29;20423;-81
2023/06/16 14:04:04;;;;;;;6.80;6.20;;;;;;;;;;4910688;29;20432;-81
2023/06/16 14:06:31;;;;;;;8.80;5.70;;;;;;;;;;4910426;29;20755;-86
2023/06/16 14:08:59;;;;;;;5.87;5.40;;;;;;;;;;4910197;29;20446;-83
2023/06/16 14:11:26;;;;;;;5.13;4.80;;;;;;;;;;4905518;29;20514;-82
2023/06/16 14:13:53;;;;;;;9.33;6.60;;;;;;;;;;4909330;29;20842;-84
2023/06/16 14:16:21;;;;;;;6.37;5.77;;;;;;;;;;4909930;29;20680;-81
2023/06/16 14:18:52;;;;;;;8.37;6.53;;;;;;;;;;4906373;29;20456;-82
2023/06/16 14:21:19;;;;;;;6.37;5.87;;;;;;;;;;4914270;29;20448;-82
2023/06/16 14:23:46;;;;;;;5.77;5.40;;;;;;;;;;4917026;29;20531;-84
2023/06/16 14:26:22;;;;;;;5.87;5.50;;;;;;;;;;4914736;29;20467;-83
2023/06/16 14:28:51;;;;;;;6.43;5.80;;;;;;;;;;4912479;29;20443;-82
2023/06/16 14:31:19;;;;;;;6.97;6.40;;;;;;;;;;4904895;29;20464;-80
2023/06/16 14:33:49;;;;;;;7.43;6.73;;;;;;;;;;4915924;29;20470;-81
2023/06/16 14:36:17;;;;;;;10.57;7.13;;;;;;;;;;4906140;29;21048;-85
2023/06/16 14:38:44;;;;;;;6.23;5.53;;;;;;;;;;4904769;29;20679;-82
2023/06/16 14:41:12;;;;;;;6.93;5.70;;;;;;;;;;4912252;29;20525;-80
2023/06/16 14:43:40;;;;;;;11.13;6.30;;;;;;;;;;4911712;29;20825;-81